Time;durP1;ratioP1;P1;durP2;ratioP2;P2;SDS_P1;SDS_P2;PMS_P1;PMS_P2;Temp;Humidity;BMP_temperature;BMP_pressure;BME280_temperature;BME280_humidity;BME280_pressure;Samples;Min_cycle;Max_cycle;Signal;HPM_P1;HPM_P2
2023/07/06 00:01:45;;;;;;;5.68;2.90;;;;;;;;;;4993541;28;20439;-68
2023/07/06 00:04:12;;;;;;;6.47;2.05;;;;;;;;;;4996315;28;20030;-68
2023/07/06 00:06:38;;;;;;;8.40;2.22;;;;;;;;;;4996231;28;20105;-67
2023/07/06 00:09:05;;;;;;;9.98;2.58;;;;;;;;;;4996248;28;20518;-67
2023/07/06 00:11:36;;;;;;;5.78;2.40;;;;;;;;;;4994595;28;20113;-68
2023/07/06 00:14:02;;;;;;;5.45;2.05;;;;;;;;;;4994775;28;20023;-67
2023/07/06 00:16:28;;;;;;;5.82;2.75;;;;;;;;;;4994009;28;20034;-67
2023/07/06 00:18:53;;;;;;;5.38;2.08;;;;;;;;;;4986303;28;20092;-67
2023/07/06 00:21:18;;;;;;;7.35;2.50;;;;;;;;;;4976518;28;20025;-67
2023/07/06 00:23:44;;;;;;;5.93;3.13;;;;;;;;;;4977987;28;20391;-67
2023/07/06 00:26:12;;;;;;;4.45;2.03;;;;;;;;;;4976993;28;20032;-67
2023/07/06 00:28:37;;;;;;;4.80;2.20;;;;;;;;;;4994103;28;20508;-67
2023/07/06 00:31:10;;;;;;;5.05;2.33;;;;;;;;;;4988375;28;20030;-68
2023/07/06 00:33:36;;;;;;;6.38;2.95;;;;;;;;;;4993636;28;20404;-67
2023/07/06 00:36:03;;;;;;;3.30;2.03;;;;;;;;;;4988446;28;20022;-67
2023/07/06 00:38:28;;;;;;;3.58;2.00;;;;;;;;;;4995802;28;20083;-67
2023/07/06 00:40:56;;;;;;;7.55;2.80;;;;;;;;;;4995750;28;20018;-67
2023/07/06 00:43:24;;;;;;;3.97;2.15;;;;;;;;;;4995378;28;20125;-67
2023/07/06 00:45:57;;;;;;;5.10;1.50;;;;;;;;;;4995256;28;20098;-67
2023/07/06 00:48:32;;;;;;;6.85;1.70;;;;;;;;;;4994385;28;20065;-67
2023/07/06 00:51:01;;;;;;;3.92;1.70;;;;;;;;;;4989759;28;20027;-67
2023/07/06 00:53:32;;;;;;;3.22;1.65;;;;;;;;;;4990581;28;20509;-67
2023/07/06 00:55:58;;;;;;;4.65;1.88;;;;;;;;;;4982238;28;20026;-67
2023/07/06 00:58:28;;;;;;;5.05;1.73;;;;;;;;;;5010545;28;20081;-67
2023/07/06 01:00:56;;;;;;;4.93;2.33;;;;;;;;;;4994386;28;20027;-67
2023/07/06 01:03:22;;;;;;;6.75;2.53;;;;;;;;;;4995538;28;20566;-67
2023/07/06 01:05:49;;;;;;;7.75;2.15;;;;;;;;;;5007524;28;20097;-67
2023/07/06 01:08:19;;;;;;;6.72;2.35;;;;;;;;;;4994362;28;20049;-67
2023/07/06 01:10:45;;;;;;;4.07;2.83;;;;;;;;;;4993710;28;20391;-67
2023/07/06 01:13:10;;;;;;;3.47;1.85;;;;;;;;;;4991998;28;20101;-67
2023/07/06 01:15:41;;;;;;;5.15;2.97;;;;;;;;;;4994876;28;20030;-67
2023/07/06 01:18:30;;;;;;;3.47;2.05;;;;;;;;;;4974789;28;20022;-67
2023/07/06 01:21:34;;;;;;;6.95;2.30;;;;;;;;;;4975613;28;20023;-67
2023/07/06 01:24:32;;;;;;;6.45;2.00;;;;;;;;;;4975525;28;20089;-67
2023/07/06 01:27:18;;;;;;;7.07;2.53;;;;;;;;;;4990207;28;20389;-67
2023/07/06 01:30:08;;;;;;;5.18;2.30;;;;;;;;;;4975472;28;20026;-67
2023/07/06 01:32:39;;;;;;;5.32;2.17;;;;;;;;;;4975216;28;20030;-67
2023/07/06 01:35:20;;;;;;;5.88;2.10;;;;;;;;;;4989807;28;20055;-67
2023/07/06 01:37:45;;;;;;;6.18;2.28;;;;;;;;;;4995546;28;20026;-67
2023/07/06 01:40:11;;;;;;;3.75;1.90;;;;;;;;;;4975144;28;20029;-67
2023/07/06 01:42:38;;;;;;;4.65;1.83;;;;;;;;;;4977157;28;20489;-67
2023/07/06 01:45:07;;;;;;;6.70;2.63;;;;;;;;;;4974968;28;20115;-67
2023/07/06 01:47:36;;;;;;;6.45;1.88;;;;;;;;;;4993837;28;20121;-67
2023/07/06 01:50:02;;;;;;;4.45;1.83;;;;;;;;;;4994475;28;20026;-67
2023/07/06 01:52:44;;;;;;;6.15;2.30;;;;;;;;;;4993723;28;20049;-67
2023/07/06 01:58:27;;;;;;;;;;;;;;;;;;4994857;28;20430;-67
2023/07/06 02:01:00;;;;;;;4.32;1.77;;;;;;;;;;5009391;28;19917;-67
2023/07/06 02:03:26;;;;;;;4.38;1.90;;;;;;;;;;4992709;28;20034;-68
2023/07/06 02:05:52;;;;;;;4.85;2.00;;;;;;;;;;4994111;28;20495;-67
2023/07/06 02:08:18;;;;;;;3.92;2.40;;;;;;;;;;4993198;28;20027;-67
2023/07/06 02:10:43;;;;;;;5.80;1.70;;;;;;;;;;4992807;28;20026;-67
2023/07/06 02:13:08;;;;;;;5.28;3.05;;;;;;;;;;4993518;28;20392;-67
2023/07/06 02:15:34;;;;;;;4.30;2.08;;;;;;;;;;4994286;28;20033;-68
2023/07/06 02:18:02;;;;;;;3.80;1.52;;;;;;;;;;4993947;28;20023;-68
2023/07/06 02:20:27;;;;;;;4.38;2.10;;;;;;;;;;4993597;28;20028;-67
2023/07/06 02:22:52;;;;;;;4.63;1.90;;;;;;;;;;4993089;28;20034;-67
2023/07/06 02:25:18;;;;;;;5.13;1.80;;;;;;;;;;4992679;28;20547;-68
2023/07/06 02:27:43;;;;;;;5.25;2.00;;;;;;;;;;4993566;28;20018;-67
2023/07/06 02:30:09;;;;;;;7.35;2.15;;;;;;;;;;4993481;28;20029;-68
2023/07/06 02:32:34;;;;;;;5.05;2.17;;;;;;;;;;4993730;28;20029;-68
2023/07/06 02:35:02;;;;;;;6.68;2.05;;;;;;;;;;4993524;28;20033;-67
2023/07/06 02:37:28;;;;;;;5.32;2.30;;;;;;;;;;4993571;28;20029;-68
2023/07/06 02:39:53;;;;;;;7.90;2.10;;;;;;;;;;4992921;28;20050;-68
2023/07/06 02:42:19;;;;;;;6.25;2.22;;;;;;;;;;4993616;28;20105;-68
2023/07/06 02:44:44;;;;;;;6.25;2.40;;;;;;;;;;4993414;28;20396;-67
2023/07/06 02:47:10;;;;;;;3.67;2.00;;;;;;;;;;4993295;28;20023;-67
2023/07/06 02:49:36;;;;;;;4.88;2.30;;;;;;;;;;4993403;28;20081;-68
2023/07/06 02:52:01;;;;;;;5.65;3.58;;;;;;;;;;4992835;28;20452;-68
2023/07/06 02:54:27;;;;;;;6.68;2.50;;;;;;;;;;4992121;28;20026;-67
2023/07/06 02:56:52;;;;;;;8.20;2.53;;;;;;;;;;4993244;28;20022;-67
2023/07/06 02:59:18;;;;;;;4.13;2.22;;;;;;;;;;4992213;28;20073;-67
2023/07/06 03:01:45;;;;;;;5.13;2.25;;;;;;;;;;4992948;28;20045;-68
2023/07/06 03:04:10;;;;;;;5.03;2.03;;;;;;;;;;4993138;28;20026;-68
2023/07/06 03:06:37;;;;;;;7.25;2.20;;;;;;;;;;4993444;28;20525;-67
2023/07/06 03:09:03;;;;;;;6.45;2.10;;;;;;;;;;4993244;28;20026;-68
2023/07/06 03:11:28;;;;;;;8.05;2.70;;;;;;;;;;4993023;28;20022;-67
2023/07/06 03:13:56;;;;;;;7.88;2.20;;;;;;;;;;4992736;28;20022;-68
2023/07/06 03:16:21;;;;;;;4.20;2.47;;;;;;;;;;4993307;28;20480;-67
2023/07/06 03:18:46;;;;;;;4.38;2.65;;;;;;;;;;4993243;28;20026;-68
2023/07/06 03:21:12;;;;;;;4.68;2.00;;;;;;;;;;4993245;28;20058;-68
2023/07/06 03:23:37;;;;;;;4.78;1.90;;;;;;;;;;4992899;28;20068;-67
2023/07/06 03:26:02;;;;;;;6.28;3.13;;;;;;;;;;4990603;28;20029;-67
2023/07/06 03:28:28;;;;;;;4.65;2.08;;;;;;;;;;4978628;28;20103;-68
2023/07/06 03:30:55;;;;;;;4.97;2.05;;;;;;;;;;4973588;28;20503;-67
2023/07/06 03:33:21;;;;;;;6.97;2.40;;;;;;;;;;4973861;28;20101;-67
2023/07/06 03:35:46;;;;;;;5.22;2.80;;;;;;;;;;4973166;28;20029;-68
2023/07/06 03:38:12;;;;;;;4.65;2.33;;;;;;;;;;4977337;28;20499;-67
2023/07/06 03:40:38;;;;;;;2.97;2.03;;;;;;;;;;4977014;28;20026;-68
2023/07/06 03:43:03;;;;;;;3.88;2.50;;;;;;;;;;4978713;28;20026;-68
2023/07/06 03:45:30;;;;;;;5.00;2.13;;;;;;;;;;4992238;28;20037;-67
2023/07/06 03:47:55;;;;;;;6.10;2.20;;;;;;;;;;4985599;28;20084;-68
2023/07/06 03:50:21;;;;;;;5.30;2.20;;;;;;;;;;4996778;28;20480;-68
2023/07/06 03:52:46;;;;;;;5.68;3.13;;;;;;;;;;4996319;28;20390;-68
2023/07/06 03:55:15;;;;;;;4.10;2.25;;;;;;;;;;4996214;28;20026;-68
2023/07/06 03:57:42;;;;;;;3.38;1.90;;;;;;;;;;4996331;28;20022;-68
2023/07/06 04:00:19;;;;;;;4.88;1.98;;;;;;;;;;4996925;28;20022;-68
2023/07/06 04:02:52;;;;;;;7.13;2.70;;;;;;;;;;4996471;28;20029;-68
2023/07/06 04:05:19;;;;;;;3.58;2.45;;;;;;;;;;4996015;28;20387;-68
2023/07/06 04:07:45;;;;;;;4.18;2.17;;;;;;;;;;4996451;28;20023;-67
2023/07/06 04:10:12;;;;;;;3.65;2.13;;;;;;;;;;4995093;28;20160;-68
2023/07/06 04:12:37;;;;;;;4.43;2.10;;;;;;;;;;4996080;28;20022;-67
2023/07/06 04:15:06;;;;;;;5.68;2.30;;;;;;;;;;4993438;28;20045;-68
2023/07/06 04:17:32;;;;;;;4.38;2.25;;;;;;;;;;4995996;28;20022;-68
2023/07/06 04:19:58;;;;;;;7.00;2.38;;;;;;;;;;4992419;28;20038;-68
2023/07/06 04:22:23;;;;;;;5.90;2.35;;;;;;;;;;4976695;28;20030;-68
2023/07/06 04:24:49;;;;;;;9.25;2.38;;;;;;;;;;4976096;28;20027;-68
2023/07/06 04:27:14;;;;;;;4.20;2.40;;;;;;;;;;4994243;28;20028;-67
2023/07/06 04:29:39;;;;;;;5.38;2.38;;;;;;;;;;4995652;28;20041;-68
2023/07/06 04:32:06;;;;;;;8.18;3.22;;;;;;;;;;4994122;28;20373;-67
2023/07/06 04:34:31;;;;;;;5.45;2.35;;;;;;;;;;4995543;28;20499;-68
2023/07/06 04:36:57;;;;;;;5.03;3.10;;;;;;;;;;4988187;28;20027;-68
2023/07/06 04:39:22;;;;;;;5.50;2.58;;;;;;;;;;4993530;28;20486;-68
2023/07/06 04:41:48;;;;;;;4.55;2.33;;;;;;;;;;4987157;28;20476;-68
2023/07/06 04:44:15;;;;;;;5.85;3.28;;;;;;;;;;4989470;28;20473;-68
2023/07/06 04:46:41;;;;;;;5.93;2.72;;;;;;;;;;5009461;28;20022;-68
2023/07/06 04:49:06;;;;;;;3.97;2.70;;;;;;;;;;4995280;28;20447;-67
2023/07/06 04:51:35;;;;;;;7.57;2.60;;;;;;;;;;4995818;28;20098;-68
2023/07/06 04:54:01;;;;;;;4.85;2.70;;;;;;;;;;4994121;28;20030;-68
2023/07/06 04:56:27;;;;;;;7.18;3.03;;;;;;;;;;4994979;28;20030;-68
2023/07/06 04:58:53;;;;;;;4.28;2.38;;;;;;;;;;4995505;28;20080;-68
2023/07/06 05:01:19;;;;;;;7.70;3.10;;;;;;;;;;4995347;28;20500;-68
2023/07/06 05:03:45;;;;;;;4.53;2.50;;;;;;;;;;4995160;28;20026;-68
2023/07/06 05:06:12;;;;;;;4.20;3.00;;;;;;;;;;4995216;28;20028;-68
2023/07/06 05:08:39;;;;;;;5.30;2.97;;;;;;;;;;4995404;28;20030;-68
2023/07/06 05:11:05;;;;;;;4.60;2.55;;;;;;;;;;4993152;28;20045;-68
2023/07/06 05:13:31;;;;;;;7.63;3.10;;;;;;;;;;4994011;28;20068;-68
2023/07/06 05:15:56;;;;;;;7.60;3.30;;;;;;;;;;4994624;28;20126;-68
2023/07/06 05:18:22;;;;;;;3.17;2.42;;;;;;;;;;4995134;28;20472;-68
2023/07/06 05:20:51;;;;;;;7.05;3.40;;;;;;;;;;4994767;28;20026;-68
2023/07/06 05:23:17;;;;;;;4.05;2.60;;;;;;;;;;4993142;28;20019;-68
2023/07/06 05:25:42;;;;;;;3.33;2.42;;;;;;;;;;4994893;28;20034;-68
2023/07/06 05:28:10;;;;;;;4.97;2.55;;;;;;;;;;4994598;28;20024;-68
2023/07/06 05:30:37;;;;;;;4.57;2.58;;;;;;;;;;4995327;28;20028;-68
2023/07/06 05:33:02;;;;;;;5.45;2.40;;;;;;;;;;4994554;28;20514;-68
2023/07/06 05:35:28;;;;;;;5.20;2.45;;;;;;;;;;4994786;28;20022;-68
2023/07/06 05:37:54;;;;;;;6.40;2.22;;;;;;;;;;4994262;28;20449;-69
2023/07/06 05:40:19;;;;;;;6.78;3.50;;;;;;;;;;4994601;28;20022;-68
2023/07/06 05:42:44;;;;;;;5.25;2.47;;;;;;;;;;4994423;28;20033;-68
2023/07/06 05:45:10;;;;;;;5.20;2.50;;;;;;;;;;4994382;28;20018;-68
2023/07/06 05:47:35;;;;;;;7.88;2.80;;;;;;;;;;4994689;28;20030;-68
2023/07/06 05:50:01;;;;;;;5.57;2.70;;;;;;;;;;4992749;28;20025;-68
2023/07/06 05:52:27;;;;;;;4.20;2.70;;;;;;;;;;4994192;28;20081;-68
2023/07/06 05:54:53;;;;;;;3.25;2.25;;;;;;;;;;4994081;28;20041;-68
2023/07/06 05:57:19;;;;;;;7.32;2.83;;;;;;;;;;4994407;28;20034;-69
2023/07/06 05:59:46;;;;;;;6.32;2.50;;;;;;;;;;4992305;28;20018;-68
2023/07/06 06:02:15;;;;;;;4.03;2.13;;;;;;;;;;4993359;28;20025;-68
2023/07/06 06:04:41;;;;;;;7.53;2.78;;;;;;;;;;4994603;28;20105;-68
2023/07/06 06:07:06;;;;;;;3.28;2.40;;;;;;;;;;4994732;28;20037;-68
2023/07/06 06:09:33;;;;;;;7.00;2.75;;;;;;;;;;4994783;28;20476;-68
2023/07/06 06:11:59;;;;;;;5.35;2.40;;;;;;;;;;4993722;28;20022;-68
2023/07/06 06:14:24;;;;;;;7.85;2.75;;;;;;;;;;4993857;28;20030;-68
2023/07/06 06:16:49;;;;;;;4.95;2.88;;;;;;;;;;4993318;28;20077;-68
2023/07/06 06:19:16;;;;;;;6.43;2.83;;;;;;;;;;4992900;28;20143;-68
2023/07/06 06:21:41;;;;;;;5.07;2.88;;;;;;;;;;4993783;28;20022;-68
2023/07/06 06:24:08;;;;;;;8.70;3.55;;;;;;;;;;4993946;28;20396;-68
2023/07/06 06:26:35;;;;;;;5.72;2.63;;;;;;;;;;4992528;28;20030;-68
2023/07/06 06:29:00;;;;;;;4.85;3.03;;;;;;;;;;4992941;28;20018;-69
2023/07/06 06:31:27;;;;;;;5.50;3.10;;;;;;;;;;4994191;28;20361;-68
2023/07/06 06:33:53;;;;;;;6.80;2.47;;;;;;;;;;4992193;28;20435;-68
2023/07/06 06:36:18;;;;;;;4.00;1.98;;;;;;;;;;4993850;28;20028;-68
2023/07/06 06:38:44;;;;;;;3.85;2.50;;;;;;;;;;4993081;28;20369;-68
2023/07/06 06:41:10;;;;;;;6.63;2.42;;;;;;;;;;4992148;28;20037;-68
2023/07/06 06:43:40;;;;;;;4.20;2.35;;;;;;;;;;4974224;28;20031;-68
2023/07/06 06:46:10;;;;;;;4.13;2.40;;;;;;;;;;4973508;28;20084;-68
2023/07/06 06:48:35;;;;;;;3.72;2.20;;;;;;;;;;4983694;28;20503;-68
2023/07/06 06:51:02;;;;;;;4.97;2.30;;;;;;;;;;4988143;28;20038;-68
2023/07/06 06:53:28;;;;;;;6.25;2.53;;;;;;;;;;4993118;28;20027;-69
2023/07/06 06:55:54;;;;;;;6.20;4.30;;;;;;;;;;4992889;28;20048;-68
2023/07/06 06:58:20;;;;;;;5.32;2.67;;;;;;;;;;4993564;28;20366;-68
2023/07/06 07:00:46;;;;;;;4.45;2.78;;;;;;;;;;4991947;28;20025;-68
2023/07/06 07:03:13;;;;;;;4.82;2.35;;;;;;;;;;4993144;28;20026;-68
2023/07/06 07:05:39;;;;;;;4.93;2.50;;;;;;;;;;4993205;28;20109;-68
2023/07/06 07:08:04;;;;;;;3.45;2.20;;;;;;;;;;4989954;28;20058;-68
2023/07/06 07:10:30;;;;;;;6.47;2.58;;;;;;;;;;5009138;28;20033;-68
2023/07/06 07:12:55;;;;;;;5.38;2.55;;;;;;;;;;4988991;28;20058;-68
2023/07/06 07:15:21;;;;;;;5.53;2.72;;;;;;;;;;4997119;28;20022;-68
2023/07/06 07:17:46;;;;;;;5.25;3.03;;;;;;;;;;4996574;28;20377;-68
2023/07/06 07:20:13;;;;;;;5.55;2.38;;;;;;;;;;4992985;28;20050;-68
2023/07/06 07:22:39;;;;;;;4.28;2.30;;;;;;;;;;4991964;28;20027;-68
2023/07/06 07:25:05;;;;;;;5.95;2.60;;;;;;;;;;4993550;28;20110;-68
2023/07/06 07:27:30;;;;;;;4.82;2.70;;;;;;;;;;4996718;28;20504;-69
2023/07/06 07:29:58;;;;;;;4.35;2.13;;;;;;;;;;4994523;28;20026;-69
2023/07/06 07:32:23;;;;;;;3.97;2.25;;;;;;;;;;4996269;28;20040;-68
2023/07/06 07:34:50;;;;;;;6.55;2.40;;;;;;;;;;4996709;28;20023;-68
2023/07/06 07:37:18;;;;;;;4.35;2.40;;;;;;;;;;5010712;28;20030;-68
2023/07/06 07:39:44;;;;;;;6.30;1.98;;;;;;;;;;4996667;28;20725;-69
2023/07/06 07:42:10;;;;;;;4.90;2.05;;;;;;;;;;4996230;28;20101;-70
2023/07/06 07:44:35;;;;;;;4.75;1.95;;;;;;;;;;4996674;28;20068;-69
2023/07/06 07:47:02;;;;;;;5.47;1.92;;;;;;;;;;5011603;28;20480;-70
2023/07/06 07:49:27;;;;;;;5.47;2.05;;;;;;;;;;4996611;28;20029;-70
2023/07/06 07:51:52;;;;;;;7.75;2.10;;;;;;;;;;4990685;28;20035;-70
2023/07/06 07:54:19;;;;;;;6.03;2.00;;;;;;;;;;4991234;28;20041;-70
2023/07/06 07:56:44;;;;;;;5.18;1.95;;;;;;;;;;4994068;28;20030;-70
2023/07/06 07:59:10;;;;;;;4.43;2.60;;;;;;;;;;4996506;28;20365;-69
2023/07/06 08:01:36;;;;;;;4.00;1.80;;;;;;;;;;4986140;28;20019;-69
2023/07/06 08:04:02;;;;;;;2.83;1.88;;;;;;;;;;4976851;28;20516;-69
2023/07/06 08:06:28;;;;;;;4.32;1.90;;;;;;;;;;4976391;28;20030;-69
2023/07/06 08:08:53;;;;;;;3.28;1.90;;;;;;;;;;4976874;28;20030;-69
2023/07/06 08:11:22;;;;;;;2.90;2.28;;;;;;;;;;4991302;28;20388;-69
2023/07/06 08:13:51;;;;;;;5.57;2.72;;;;;;;;;;4979005;28;20095;-68
2023/07/06 08:16:17;;;;;;;5.75;1.80;;;;;;;;;;4976596;28;20037;-69
2023/07/06 08:18:43;;;;;;;3.80;1.83;;;;;;;;;;4990356;28;20488;-68
2023/07/06 08:21:10;;;;;;;3.65;1.60;;;;;;;;;;4995484;28;20030;-68
2023/07/06 08:23:37;;;;;;;4.90;2.08;;;;;;;;;;4994983;28;20029;-69
2023/07/06 08:26:04;;;;;;;8.13;2.67;;;;;;;;;;4994664;28;20030;-69
2023/07/06 08:28:31;;;;;;;6.70;1.65;;;;;;;;;;4996062;28;20061;-69
2023/07/06 08:31:01;;;;;;;5.25;1.80;;;;;;;;;;5010972;28;20018;-69
2023/07/06 08:33:27;;;;;;;2.80;1.65;;;;;;;;;;4995818;28;20452;-70
2023/07/06 08:35:53;;;;;;;2.30;1.50;;;;;;;;;;4995555;28;20033;-68
2023/07/06 08:38:19;;;;;;;5.03;1.60;;;;;;;;;;5011259;28;20097;-68
2023/07/06 08:40:48;;;;;;;4.32;1.70;;;;;;;;;;5010473;28;20031;-68
2023/07/06 08:43:18;;;;;;;4.15;1.60;;;;;;;;;;4995197;28;20030;-69
2023/07/06 08:45:45;;;;;;;2.20;1.48;;;;;;;;;;4995577;28;20039;-68
2023/07/06 08:48:16;;;;;;;2.65;1.63;;;;;;;;;;5010542;28;20033;-68
2023/07/06 08:50:44;;;;;;;;;;;;;;;;;;5011372;28;20027;-68
2023/07/06 08:53:14;;;;;;;8.10;1.80;;;;;;;;;;5009608;28;19990;-68
2023/07/06 08:55:40;;;;;;;3.33;1.40;;;;;;;;;;4995474;28;20507;-68
2023/07/06 08:58:06;;;;;;;3.63;1.60;;;;;;;;;;5010370;28;20030;-67
2023/07/06 09:00:31;;;;;;;3.58;1.67;;;;;;;;;;4994819;28;20030;-68
2023/07/06 09:03:07;;;;;;;2.50;1.77;;;;;;;;;;4995185;28;20494;-68
2023/07/06 09:05:37;;;;;;;2.83;1.92;;;;;;;;;;4994188;28;20073;-68
2023/07/06 09:08:03;;;;;;;2.47;1.40;;;;;;;;;;5010395;28;20480;-68
2023/07/06 09:10:29;;;;;;;4.85;1.45;;;;;;;;;;4995344;28;20084;-68
2023/07/06 09:13:15;;;;;;;5.38;2.00;;;;;;;;;;4994755;28;20463;-69
2023/07/06 09:15:44;;;;;;;3.60;1.40;;;;;;;;;;4987851;28;20038;-69
2023/07/06 09:18:13;;;;;;;3.60;1.38;;;;;;;;;;4995375;28;20022;-68
2023/07/06 09:20:39;;;;;;;2.30;1.52;;;;;;;;;;4994979;28;20535;-69
2023/07/06 09:23:06;;;;;;;1.73;1.20;;;;;;;;;;4995113;28;20018;-68
2023/07/06 09:25:36;;;;;;;5.25;2.08;;;;;;;;;;5009813;28;20435;-69
2023/07/06 09:28:06;;;;;;;1.95;1.20;;;;;;;;;;4994263;28;20014;-69
2023/07/06 09:30:36;;;;;;;3.17;1.23;;;;;;;;;;4994866;28;20037;-69
2023/07/06 09:33:24;;;;;;;3.30;1.52;;;;;;;;;;4994511;28;20421;-69
2023/07/06 09:35:52;;;;;;;3.38;1.40;;;;;;;;;;4994924;28;20029;-69
2023/07/06 09:38:19;;;;;;;3.20;1.40;;;;;;;;;;4993643;28;20117;-68
2023/07/06 09:40:44;;;;;;;3.33;1.83;;;;;;;;;;4994033;28;20370;-68
2023/07/06 09:43:27;;;;;;;2.55;1.30;;;;;;;;;;5009751;28;20077;-69
2023/07/06 09:45:54;;;;;;;5.25;1.52;;;;;;;;;;4994361;28;20027;-69
2023/07/06 09:48:37;;;;;;;2.22;1.20;;;;;;;;;;4994121;28;20026;-69
2023/07/06 09:51:05;;;;;;;3.75;2.03;;;;;;;;;;5009545;28;20440;-69
2023/07/06 09:53:33;;;;;;;3.28;1.60;;;;;;;;;;4994378;28;20040;-69
2023/07/06 09:55:59;;;;;;;5.55;1.40;;;;;;;;;;4994741;28;20022;-69
2023/07/06 09:58:26;;;;;;;3.30;1.77;;;;;;;;;;4995383;28;20387;-69
2023/07/06 10:00:57;;;;;;;4.47;1.40;;;;;;;;;;4992596;28;20026;-70
2023/07/06 10:03:52;;;;;;;1.73;1.23;;;;;;;;;;4992326;28;20081;-69
2023/07/06 10:06:35;;;;;;;3.10;1.30;;;;;;;;;;4992530;28;20110;-69
2023/07/06 10:09:32;;;;;;;1.90;1.60;;;;;;;;;;4973806;28;20489;-69
2023/07/06 10:12:06;;;;;;;1.90;1.17;;;;;;;;;;4974629;28;20046;-69
2023/07/06 10:14:44;;;;;;;1.75;1.20;;;;;;;;;;4957349;28;20022;-69
2023/07/06 10:17:15;;;;;;;3.08;0.95;;;;;;;;;;4973241;28;20023;-69
2023/07/06 10:20:08;;;;;;;2.88;1.42;;;;;;;;;;4974205;28;20026;-69
2023/07/06 10:22:52;;;;;;;1.67;1.10;;;;;;;;;;4974300;28;20038;-69
2023/07/06 10:25:29;;;;;;;5.28;1.80;;;;;;;;;;4991195;28;20109;-69
2023/07/06 10:28:03;;;;;;;1.83;1.20;;;;;;;;;;4993824;28;20033;-69
2023/07/06 10:30:36;;;;;;;1.80;0.90;;;;;;;;;;4980006;28;20090;-70
2023/07/06 10:33:10;;;;;;;3.28;1.27;;;;;;;;;;4982758;28;20126;-69
2023/07/06 10:35:40;;;;;;;1.67;1.10;;;;;;;;;;5003658;28;20042;-69
2023/07/06 10:38:06;;;;;;;2.25;1.27;;;;;;;;;;4984458;28;20022;-70
2023/07/06 10:40:32;;;;;;;1.88;1.20;;;;;;;;;;5004777;28;20026;-71
2023/07/06 10:43:20;;;;;;;1.40;1.00;;;;;;;;;;4987576;28;20076;-71
2023/07/06 10:45:54;;;;;;;3.40;1.30;;;;;;;;;;4983077;28;20027;-70
2023/07/06 10:48:34;;;;;;;2.40;1.05;;;;;;;;;;4983514;28;20038;-69
2023/07/06 10:51:17;;;;;;;2.90;1.40;;;;;;;;;;4985215;28;20109;-69
2023/07/06 10:53:51;;;;;;;1.75;1.20;;;;;;;;;;4987547;28;20057;-69
2023/07/06 10:56:20;;;;;;;3.58;1.90;;;;;;;;;;4991100;28;20183;-69
2023/07/06 10:58:57;;;;;;;2.67;1.30;;;;;;;;;;5008109;28;20538;-69
2023/07/06 11:01:29;;;;;;;3.17;1.30;;;;;;;;;;5008547;28;20018;-69
2023/07/06 11:03:54;;;;;;;3.33;2.03;;;;;;;;;;5008317;28;20373;-69
2023/07/06 11:06:41;;;;;;;2.75;1.55;;;;;;;;;;4993411;28;20029;-69
2023/07/06 11:09:09;;;;;;;5.53;1.98;;;;;;;;;;4992825;28;20097;-69
2023/07/06 11:11:42;;;;;;;2.20;1.45;;;;;;;;;;4993287;28;20045;-68
2023/07/06 11:14:23;;;;;;;2.38;1.52;;;;;;;;;;4993141;28;20026;-68
2023/07/06 11:16:56;;;;;;;2.10;1.52;;;;;;;;;;4993318;28;20038;-69
2023/07/06 11:19:26;;;;;;;4.05;1.45;;;;;;;;;;4993086;28;20026;-68
2023/07/06 11:21:54;;;;;;;3.47;1.55;;;;;;;;;;4992745;28;20011;-69
2023/07/06 11:24:22;;;;;;;2.67;1.30;;;;;;;;;;4993082;28;20023;-69
2023/07/06 11:26:54;;;;;;;3.00;1.60;;;;;;;;;;4991965;28;20097;-69
2023/07/06 11:29:21;;;;;;;4.10;1.60;;;;;;;;;;4991963;28;20022;-69
2023/07/06 11:32:05;;;;;;;1.58;1.30;;;;;;;;;;4993005;28;20023;-70
2023/07/06 11:35:09;;;;;;;2.45;1.40;;;;;;;;;;4992336;28;20030;-69
2023/07/06 11:37:46;;;;;;;2.10;1.35;;;;;;;;;;4993220;28;20014;-69
2023/07/06 11:40:42;;;;;;;3.10;1.40;;;;;;;;;;4992831;28;20106;-69
2023/07/06 11:43:25;;;;;;;2.05;1.20;;;;;;;;;;4980640;28;20038;-70
2023/07/06 11:46:09;;;;;;;2.67;1.50;;;;;;;;;;4973138;28;20086;-69
2023/07/06 11:48:49;;;;;;;1.90;1.35;;;;;;;;;;4973589;28;20106;-69
2023/07/06 11:51:15;;;;;;;3.75;1.20;;;;;;;;;;4972167;28;20061;-69
2023/07/06 11:56:19;;;;;;;2.65;1.08;;;;;;;;;;4993301;28;20027;-69
2023/07/06 11:59:01;;;;;;;3.40;1.30;;;;;;;;;;4995582;28;20076;-69
2023/07/06 12:01:42;;;;;;;3.40;1.30;;;;;;;;;;5009950;28;20061;-69
2023/07/06 12:04:14;;;;;;;3.80;1.35;;;;;;;;;;5010082;28;20084;-69
2023/07/06 12:06:39;;;;;;;2.25;1.23;;;;;;;;;;5010769;28;20054;-69
2023/07/06 12:09:08;;;;;;;3.22;1.42;;;;;;;;;;4996362;28;20026;-69
2023/07/06 12:11:34;;;;;;;3.97;1.48;;;;;;;;;;4996156;28;20113;-69
2023/07/06 12:13:59;;;;;;;4.55;2.08;;;;;;;;;;5011608;28;20457;-69
2023/07/06 12:16:27;;;;;;;4.95;1.40;;;;;;;;;;5011032;28;20109;-68
2023/07/06 12:19:03;;;;;;;3.30;1.50;;;;;;;;;;5011237;28;20046;-69
2023/07/06 12:21:52;;;;;;;2.10;1.40;;;;;;;;;;4995183;28;20026;-69
2023/07/06 12:24:20;;;;;;;4.05;1.60;;;;;;;;;;4976458;28;20022;-69
2023/07/06 12:26:55;;;;;;;3.03;1.40;;;;;;;;;;4987545;28;20065;-69
2023/07/06 12:29:26;;;;;;;3.75;1.40;;;;;;;;;;4995869;28;20062;-69
2023/07/06 12:31:53;;;;;;;4.10;1.73;;;;;;;;;;4996106;28;20026;-69
2023/07/06 12:34:23;;;;;;;3.80;1.55;;;;;;;;;;4994166;28;20116;-69
2023/07/06 12:36:51;;;;;;;3.20;1.35;;;;;;;;;;4995675;28;20026;-69
2023/07/06 12:39:19;;;;;;;3.67;1.30;;;;;;;;;;5010496;28;20122;-69
2023/07/06 12:41:44;;;;;;;1.80;1.25;;;;;;;;;;4995488;28;20025;-69
2023/07/06 12:44:17;;;;;;;2.10;1.30;;;;;;;;;;4995785;28;20026;-68
2023/07/06 12:46:53;;;;;;;3.30;1.30;;;;;;;;;;5010459;28;20502;-68
2023/07/06 12:49:21;;;;;;;3.28;1.20;;;;;;;;;;4993557;28;20024;-69
2023/07/06 12:51:54;;;;;;;2.83;1.20;;;;;;;;;;4995239;28;20030;-69
2023/07/06 12:54:22;;;;;;;2.63;1.33;;;;;;;;;;4988138;28;20050;-69
2023/07/06 12:57:02;;;;;;;3.35;1.40;;;;;;;;;;4975985;28;20204;-69
2023/07/06 12:59:36;;;;;;;3.65;1.60;;;;;;;;;;4978521;28;20034;-69
2023/07/06 13:02:19;;;;;;;2.15;1.30;;;;;;;;;;4974498;28;20114;-69
2023/07/06 13:04:47;;;;;;;2.13;1.60;;;;;;;;;;4995465;28;20026;-69
2023/07/06 13:07:15;;;;;;;1.85;1.10;;;;;;;;;;4995193;28;20106;-69
2023/07/06 13:09:41;;;;;;;5.35;1.38;;;;;;;;;;4984237;28;20030;-69
2023/07/06 13:12:09;;;;;;;2.72;1.75;;;;;;;;;;4995124;28;20400;-69
2023/07/06 13:14:39;;;;;;;2.15;1.35;;;;;;;;;;4986600;28;20035;-69
2023/07/06 13:17:08;;;;;;;2.17;1.90;;;;;;;;;;4975480;28;20403;-70
2023/07/06 13:19:33;;;;;;;1.77;1.25;;;;;;;;;;4980637;28;20034;-70
2023/07/06 13:21:59;;;;;;;1.77;1.02;;;;;;;;;;4995051;28;20483;-69
2023/07/06 13:24:25;;;;;;;2.28;1.10;;;;;;;;;;4992489;28;20507;-69
2023/07/06 13:26:51;;;;;;;2.47;1.30;;;;;;;;;;4993569;28;20022;-69
2023/07/06 13:29:17;;;;;;;3.38;1.50;;;;;;;;;;4994813;28;20065;-69
2023/07/06 13:31:46;;;;;;;2.10;1.90;;;;;;;;;;4984316;28;20396;-69
2023/07/06 13:34:12;;;;;;;2.58;1.55;;;;;;;;;;4994309;28;20061;-69
2023/07/06 13:36:38;;;;;;;2.80;1.30;;;;;;;;;;4994901;28;20084;-69
2023/07/06 13:39:06;;;;;;;4.55;1.73;;;;;;;;;;4994268;28;20038;-68
2023/07/06 13:41:34;;;;;;;2.55;1.27;;;;;;;;;;4994274;28;20083;-69
2023/07/06 13:44:00;;;;;;;3.38;1.40;;;;;;;;;;4994395;28;20022;-69
2023/07/06 13:46:26;;;;;;;3.83;1.60;;;;;;;;;;5009451;28;20396;-69
2023/07/06 13:48:51;;;;;;;3.38;1.30;;;;;;;;;;5010279;28;20036;-69
2023/07/06 13:51:16;;;;;;;2.88;1.40;;;;;;;;;;5009770;28;20048;-69
2023/07/06 13:53:43;;;;;;;2.50;1.30;;;;;;;;;;4992857;28;20108;-69
2023/07/06 13:56:13;;;;;;;2.08;1.40;;;;;;;;;;4982827;28;20499;-69
2023/07/06 13:58:38;;;;;;;2.83;1.45;;;;;;;;;;4973526;28;20026;-69
2023/07/06 14:01:04;;;;;;;3.03;1.48;;;;;;;;;;4976866;28;20077;-69
2023/07/06 14:03:32;;;;;;;2.53;1.20;;;;;;;;;;4974743;28;20134;-69
2023/07/06 14:05:58;;;;;;;3.63;1.30;;;;;;;;;;4974603;28;20142;-69
2023/07/06 14:08:25;;;;;;;3.22;1.30;;;;;;;;;;4977424;28;20059;-69
2023/07/06 14:10:52;;;;;;;3.05;1.42;;;;;;;;;;4974612;28;20050;-69
2023/07/06 14:13:18;;;;;;;2.40;1.50;;;;;;;;;;4990982;28;20031;-69
2023/07/06 14:15:44;;;;;;;5.90;1.58;;;;;;;;;;4974531;28;20027;-69
2023/07/06 14:18:10;;;;;;;4.43;1.27;;;;;;;;;;4978538;28;20054;-69
2023/07/06 14:20:37;;;;;;;3.10;1.60;;;;;;;;;;4993480;28;20065;-69
2023/07/06 14:23:03;;;;;;;2.08;1.30;;;;;;;;;;4993602;28;20026;-69
2023/07/06 14:25:29;;;;;;;2.03;1.38;;;;;;;;;;4975029;28;20058;-69
2023/07/06 14:27:55;;;;;;;2.58;1.70;;;;;;;;;;4973149;28;20050;-69
2023/07/06 14:30:23;;;;;;;2.17;1.38;;;;;;;;;;4990854;28;20077;-69
2023/07/06 14:32:50;;;;;;;3.55;1.77;;;;;;;;;;4993337;28;20392;-69
2023/07/06 14:35:16;;;;;;;3.05;1.35;;;;;;;;;;4992609;28;20018;-68
2023/07/06 14:37:42;;;;;;;1.58;1.10;;;;;;;;;;4993279;28;20026;-69
2023/07/06 14:40:08;;;;;;;4.00;1.40;;;;;;;;;;4992048;28;20499;-69
2023/07/06 14:42:34;;;;;;;3.75;1.40;;;;;;;;;;4992698;28;20033;-69
2023/07/06 14:45:00;;;;;;;3.38;1.83;;;;;;;;;;4992926;28;20412;-69
2023/07/06 14:47:25;;;;;;;3.88;1.50;;;;;;;;;;4991393;28;20035;-69
2023/07/06 14:49:51;;;;;;;3.17;1.40;;;;;;;;;;4992291;28;20109;-69
2023/07/06 14:52:16;;;;;;;1.80;1.10;;;;;;;;;;4983124;28;20030;-68
2023/07/06 14:54:42;;;;;;;1.67;1.15;;;;;;;;;;4974623;28;20037;-69
2023/07/06 14:57:09;;;;;;;2.90;1.23;;;;;;;;;;4988521;28;20022;-69
2023/07/06 14:59:34;;;;;;;2.47;1.20;;;;;;;;;;4990751;28;20022;-69